Time,TemperatureF,DewpointF,PressureIn,WindDirection,WindDirectionDegrees,WindSpeedMPH,WindSpeedGustMPH,Humidity,HourlyPrecipIn,Conditions,Clouds,dailyrainin,SoftwareType,DateUTC
2013-05-05 00:13:00,48.4,46.5,29.65,East,90,6.8,-999.0,93,-99.99,,,0.01,Acu-Link.com,2013-05-05 04:13:00,
2013-05-05 00:29:00,48.6,46.7,29.65,East,90,3.2,-999.0,93,-99.99,,,0.01,Acu-Link.com,2013-05-05 04:29:00,
2013-05-05 00:44:00,48.6,46.7,29.65,ESE,112,5.8,-999.0,93,-99.99,,,0.02,Acu-Link.com,2013-05-05 04:44:00,
2013-05-05 00:59:00,48.6,46.7,29.64,East,90,7.8,-999.0,93,-99.99,,,0.06,Acu-Link.com,2013-05-05 04:59:00,
2013-05-05 01:14:00,48.6,46.7,29.64,ENE,67,6.3,-999.0,93,-99.99,,,0.11,Acu-Link.com,2013-05-05 05:14:00,
2013-05-05 01:29:00,48.6,46.7,29.62,ESE,112,2.7,-999.0,93,-99.99,,,0.15,Acu-Link.com,2013-05-05 05:29:00,
2013-05-05 01:44:00,48.6,46.7,29.61,ENE,67,5.3,-999.0,93,-99.99,,,0.18,Acu-Link.com,2013-05-05 05:44:00,
2013-05-05 02:00:00,48.6,46.7,29.60,NE,45,2.7,-999.0,93,-99.99,,,0.21,Acu-Link.com,2013-05-05 06:00:00,
2013-05-05 02:15:00,48.6,46.7,29.59,ESE,112,5.8,-999.0,93,-99.99,,,0.24,Acu-Link.com,2013-05-05 06:15:00,
2013-05-05 02:30:00,48.6,46.7,29.58,NE,45,3.7,-999.0,93,-99.99,,,0.26,Acu-Link.com,2013-05-05 06:30:00,
2013-05-05 02:45:00,48.6,46.7,29.58,East,90,9.9,-999.0,93,-99.99,,,0.28,Acu-Link.com,2013-05-05 06:45:00,
2013-05-05 03:00:00,48.6,46.7,29.58,ESE,112,6.3,-999.0,93,-99.99,,,0.34,Acu-Link.com,2013-05-05 07:00:00,
2013-05-05 03:15:00,48.6,46.7,29.57,SSE,157,6.8,-999.0,93,-99.99,,,0.41,Acu-Link.com,2013-05-05 07:15:00,
2013-05-05 03:30:00,48.4,46.5,29.57,East,90,4.7,-999.0,93,-99.99,,,0.47,Acu-Link.com,2013-05-05 07:30:00,
2013-05-05 03:46:00,48.4,46.5,29.58,East,90,5.3,-999.0,93,-99.99,,,0.51,Acu-Link.com,2013-05-05 07:46:00,
2013-05-05 04:01:00,48.2,46.3,29.57,ESE,112,7.3,-999.0,93,-99.99,,,0.59,Acu-Link.com,2013-05-05 08:01:00,
2013-05-05 04:16:00,48.2,46.3,29.57,East,90,5.8,-999.0,93,-99.99,,,0.62,Acu-Link.com,2013-05-05 08:16:00,
2013-05-05 04:31:00,48.2,46.3,29.57,NNE,22,4.7,-999.0,93,-99.99,,,0.64,Acu-Link.com,2013-05-05 08:31:00,
2013-05-05 04:47:00,47.8,45.9,29.55,SE,135,6.3,-999.0,93,-99.99,,,0.66,Acu-Link.com,2013-05-05 08:47:00,
2013-05-05 05:02:00,47.7,45.8,29.54,ENE,67,7.8,-999.0,93,-99.99,,,0.74,Acu-Link.com,2013-05-05 09:02:00,
2013-05-05 05:17:00,47.5,45.6,29.54,ESE,112,7.8,-999.0,93,-99.99,,,0.74,Acu-Link.com,2013-05-05 09:17:00,
2013-05-05 05:32:00,47.1,45.5,29.54,South,180,9.9,-999.0,94,-99.99,,,0.75,Acu-Link.com,2013-05-05 09:32:00,
2013-05-05 05:47:00,47.1,45.5,29.54,ESE,112,9.9,-999.0,94,-99.99,,,0.75,Acu-Link.com,2013-05-05 09:47:00,
2013-05-05 06:02:00,46.9,45.3,29.53,ESE,112,4.7,-999.0,94,-99.99,,,0.81,Acu-Link.com,2013-05-05 10:02:00,
2013-05-05 06:18:00,46.8,45.2,29.52,ENE,67,7.3,-999.0,94,-99.99,,,0.82,Acu-Link.com,2013-05-05 10:18:00,
2013-05-05 06:33:00,46.6,45.0,29.53,East,90,6.8,-999.0,94,-99.99,,,0.83,Acu-Link.com,2013-05-05 10:33:00,
2013-05-05 06:48:00,46.4,44.8,29.53,ESE,112,4.2,-999.0,94,-99.99,,,0.88,Acu-Link.com,2013-05-05 10:48:00,
2013-05-05 07:03:00,46.0,44.6,29.53,ESE,112,6.3,-999.0,95,-99.99,,,0.98,Acu-Link.com,2013-05-05 11:03:00,
2013-05-05 07:18:00,45.9,44.5,29.54,East,90,7.3,-999.0,95,-99.99,,,1.00,Acu-Link.com,2013-05-05 11:18:00,
2013-05-05 07:33:00,45.7,44.4,29.55,East,90,4.7,-999.0,95,-99.99,,,1.02,Acu-Link.com,2013-05-05 11:33:00,
2013-05-05 07:48:00,45.3,44.0,29.56,East,90,6.3,-999.0,95,-99.99,,,1.06,Acu-Link.com,2013-05-05 11:48:00,
2013-05-05 08:03:00,44.4,43.1,29.56,ENE,67,4.7,-999.0,95,-99.99,,,1.12,Acu-Link.com,2013-05-05 12:03:00,
2013-05-05 08:18:00,43.9,42.6,29.56,East,90,6.8,-999.0,95,-99.99,,,1.17,Acu-Link.com,2013-05-05 12:18:00,
2013-05-05 08:34:00,44.1,42.8,29.55,NE,45,7.3,-999.0,95,-99.99,,,1.21,Acu-Link.com,2013-05-05 12:34:00,
2013-05-05 08:49:00,44.1,42.8,29.56,ESE,112,8.9,-999.0,95,-99.99,,,1.24,Acu-Link.com,2013-05-05 12:49:00,
2013-05-05 09:04:00,44.6,43.3,29.55,ENE,67,4.7,-999.0,95,-99.99,,,1.28,Acu-Link.com,2013-05-05 13:04:00,
2013-05-05 09:19:00,44.4,43.1,29.56,ESE,112,4.7,-999.0,95,-99.99,,,1.31,Acu-Link.com,2013-05-05 13:19:00,
2013-05-05 09:34:00,44.8,43.5,29.56,ESE,112,6.3,-999.0,95,-99.99,,,1.35,Acu-Link.com,2013-05-05 13:34:00,
2013-05-05 09:49:00,44.2,42.9,29.58,East,90,6.3,-999.0,95,-99.99,,,1.37,Acu-Link.com,2013-05-05 13:49:00,
2013-05-05 10:05:00,44.8,43.5,29.57,East,90,6.8,-999.0,95,-99.99,,,1.41,Acu-Link.com,2013-05-05 14:05:00,
2013-05-05 10:20:00,44.8,43.5,29.57,SE,135,7.3,-999.0,95,-99.99,,,1.45,Acu-Link.com,2013-05-05 14:20:00,
2013-05-05 10:35:00,44.4,43.1,29.58,East,90,7.3,-999.0,95,-99.99,,,1.49,Acu-Link.com,2013-05-05 14:35:00,
2013-05-05 10:51:00,44.8,43.5,29.57,NE,45,5.3,-999.0,95,-99.99,,,1.55,Acu-Link.com,2013-05-05 14:51:00,
2013-05-05 11:06:00,45.0,43.7,29.57,East,90,8.9,-999.0,95,-99.99,,,1.57,Acu-Link.com,2013-05-05 15:06:00,
2013-05-05 11:21:00,45.0,43.7,29.58,East,90,2.2,-999.0,95,-99.99,,,1.59,Acu-Link.com,2013-05-05 15:21:00,
2013-05-05 11:36:00,45.0,43.7,29.58,East,90,3.7,-999.0,95,-99.99,,,1.62,Acu-Link.com,2013-05-05 15:36:00,
2013-05-05 11:52:00,45.0,43.7,29.57,East,90,8.9,-999.0,95,-99.99,,,1.68,Acu-Link.com,2013-05-05 15:52:00,
2013-05-05 12:07:00,45.0,43.7,29.58,East,90,4.2,-999.0,95,-99.99,,,1.71,Acu-Link.com,2013-05-05 16:07:00,
2013-05-05 12:22:00,45.1,43.8,29.57,ESE,112,5.8,-999.0,95,-99.99,,,1.74,Acu-Link.com,2013-05-05 16:22:00,
2013-05-05 12:37:00,45.3,44.2,29.58,ENE,67,5.3,-999.0,96,-99.99,,,1.76,Acu-Link.com,2013-05-05 16:37:00,
2013-05-05 12:53:00,45.7,44.6,29.57,ENE,67,4.7,-999.0,96,-99.99,,,1.79,Acu-Link.com,2013-05-05 16:53:00,
2013-05-05 13:08:00,45.5,44.7,29.56,East,90,10.9,-999.0,97,-99.99,,,1.80,Acu-Link.com,2013-05-05 17:08:00,
2013-05-05 13:23:00,45.5,44.7,29.55,East,90,7.3,-999.0,97,-99.99,,,1.81,Acu-Link.com,2013-05-05 17:23:00,
2013-05-05 13:38:00,45.5,44.7,29.54,ESE,112,7.8,-999.0,97,-99.99,,,1.83,Acu-Link.com,2013-05-05 17:38:00,
2013-05-05 13:53:00,45.7,44.9,29.54,North,0,5.3,-999.0,97,-99.99,,,1.90,Acu-Link.com,2013-05-05 17:53:00,
2013-05-05 14:08:00,45.9,45.1,29.54,ESE,112,5.3,-999.0,97,-99.99,,,1.93,Acu-Link.com,2013-05-05 18:08:00,
2013-05-05 14:24:00,45.9,45.1,29.54,ESE,112,4.2,-999.0,97,-99.99,,,1.95,Acu-Link.com,2013-05-05 18:24:00,
2013-05-05 14:39:00,45.9,45.1,29.53,NNE,22,5.8,-999.0,97,-99.99,,,1.95,Acu-Link.com,2013-05-05 18:39:00,
2013-05-05 14:54:00,46.4,45.6,29.54,East,90,5.3,-999.0,97,-99.99,,,1.96,Acu-Link.com,2013-05-05 18:54:00,
2013-05-05 15:09:00,46.6,45.8,29.55,ESE,112,5.8,-999.0,97,-99.99,,,1.98,Acu-Link.com,2013-05-05 19:09:00,
2013-05-05 15:24:00,46.9,46.1,29.55,East,90,5.3,-999.0,97,-99.99,,,1.99,Acu-Link.com,2013-05-05 19:24:00,
2013-05-05 15:39:00,47.5,46.7,29.53,East,90,5.3,-999.0,97,-99.99,,,2.01,Acu-Link.com,2013-05-05 19:39:00,
2013-05-05 15:54:00,47.3,46.8,29.52,ESE,112,4.7,-999.0,98,-99.99,,,2.01,Acu-Link.com,2013-05-05 19:54:00,
2013-05-05 16:10:00,47.7,46.9,29.52,East,90,6.3,-999.0,97,-99.99,,,2.01,Acu-Link.com,2013-05-05 20:10:00,
2013-05-05 16:25:00,47.3,46.5,29.51,ESE,112,8.3,-999.0,97,-99.99,,,2.01,Acu-Link.com,2013-05-05 20:25:00,
2013-05-05 16:40:00,47.5,46.7,29.51,NE,45,6.3,-999.0,97,-99.99,,,2.01,Acu-Link.com,2013-05-05 20:40:00,
2013-05-05 16:55:00,47.1,46.3,29.51,ENE,67,4.7,-999.0,97,-99.99,,,2.01,Acu-Link.com,2013-05-05 20:55:00,
2013-05-05 17:10:00,47.1,46.3,29.51,NE,45,6.3,-999.0,97,-99.99,,,2.01,Acu-Link.com,2013-05-05 21:10:00,
2013-05-05 17:26:00,47.1,46.3,29.50,NE,45,4.2,-999.0,97,-99.99,,,2.01,Acu-Link.com,2013-05-05 21:26:00,
2013-05-05 17:41:00,47.1,46.3,29.50,ENE,67,5.8,-999.0,97,-99.99,,,2.05,Acu-Link.com,2013-05-05 21:41:00,
2013-05-05 17:56:00,47.5,46.7,29.49,East,90,4.7,-999.0,97,-99.99,,,2.06,Acu-Link.com,2013-05-05 21:56:00,
2013-05-05 18:11:00,47.5,46.7,29.50,East,90,5.8,-999.0,97,-99.99,,,2.07,Acu-Link.com,2013-05-05 22:11:00,
2013-05-05 18:26:00,46.0,45.2,29.50,East,90,5.8,-999.0,97,-99.99,,,2.12,Acu-Link.com,2013-05-05 22:26:00,
2013-05-05 18:41:00,46.0,45.2,29.50,East,90,4.2,-999.0,97,-99.99,,,2.16,Acu-Link.com,2013-05-05 22:41:00,
2013-05-05 18:56:00,46.4,45.6,29.50,East,90,4.7,-999.0,97,-99.99,,,2.19,Acu-Link.com,2013-05-05 22:56:00,
2013-05-05 19:12:00,46.0,45.2,29.50,East,90,4.2,-999.0,97,-99.99,,,2.22,Acu-Link.com,2013-05-05 23:12:00,
2013-05-05 19:27:00,46.0,45.2,29.50,East,90,3.7,-999.0,97,-99.99,,,2.25,Acu-Link.com,2013-05-05 23:27:00,
2013-05-05 19:42:00,46.6,45.8,29.51,SE,135,1.1,-999.0,97,-99.99,,,2.27,Acu-Link.com,2013-05-05 23:42:00,
2013-05-05 19:58:00,48.0,46.9,29.51,NW,315,1.7,-999.0,96,-99.99,,,2.34,Acu-Link.com,2013-05-05 23:58:00,
2013-05-05 20:13:00,47.1,46.0,29.50,ESE,112,2.2,-999.0,96,-99.99,,,2.37,Acu-Link.com,2013-05-06 00:13:00,
2013-05-05 20:28:00,47.3,46.2,29.50,NNE,22,2.2,-999.0,96,-99.99,,,2.38,Acu-Link.com,2013-05-06 00:28:00,
2013-05-05 20:44:00,46.9,45.8,29.51,NNE,22,0.0,-999.0,96,-99.99,,,2.49,Acu-Link.com,2013-05-06 00:44:00,
2013-05-05 20:59:00,46.9,45.8,29.51,East,90,2.7,-999.0,96,-99.99,,,2.60,Acu-Link.com,2013-05-06 00:59:00,
2013-05-05 21:14:00,47.1,46.0,29.50,ENE,67,1.7,-999.0,96,-99.99,,,2.64,Acu-Link.com,2013-05-06 01:14:00,
2013-05-05 21:29:00,47.5,46.4,29.49,East,90,2.2,-999.0,96,-99.99,,,2.71,Acu-Link.com,2013-05-06 01:29:00,
2013-05-05 21:45:00,47.7,46.6,29.50,ENE,67,2.7,-999.0,96,-99.99,,,2.88,Acu-Link.com,2013-05-06 01:45:00,
2013-05-05 22:00:00,48.0,46.9,29.50,ENE,67,0.0,-999.0,96,-99.99,,,2.91,Acu-Link.com,2013-05-06 02:00:00,
2013-05-05 22:15:00,48.0,46.9,29.49,SSW,202,0.0,-999.0,96,-99.99,,,2.93,Acu-Link.com,2013-05-06 02:15:00,
2013-05-05 22:30:00,48.4,47.3,29.49,East,90,2.2,-999.0,96,-99.99,,,2.94,Acu-Link.com,2013-05-06 02:30:00,
2013-05-05 22:46:00,48.6,47.5,29.49,SW,225,0.0,-999.0,96,-99.99,,,2.97,Acu-Link.com,2013-05-06 02:46:00,
2013-05-05 23:01:00,49.1,48.0,29.49,East,90,2.7,-999.0,96,-99.99,,,2.98,Acu-Link.com,2013-05-06 03:01:00,
2013-05-05 23:16:00,49.6,48.5,29.50,South,180,0.0,-999.0,96,-99.99,,,3.00,Acu-Link.com,2013-05-06 03:16:00,
2013-05-05 23:32:00,49.3,48.2,29.49,NE,45,0.0,-999.0,96,-99.99,,,3.00,Acu-Link.com,2013-05-06 03:32:00,
2013-05-05 23:47:00,51.8,50.7,29.49,WNW,292,1.7,-999.0,96,-99.99,,,3.00,Acu-Link.com,2013-05-06 03:47:00,